Accueil
METAR-TAF:

METAR-TAF

Aéroports :

Aérodrome de La Roche-sur-Yon - Les Ajoncs

La Roche-sur-Yon, France

latitude: 46-42N, longitude: 001-23W, altitude: 90 m

Observation

Le bulletin a été fait il y a 20 minutes, à 06:30 UTC
Vent 4 kt de nord
Température 6°C
Humidité 75%
Pression 1042 hPa
Visibilité 10 km ou plus
Ciel couvert à une hauteur de 4000 ft

METAR: LFRI 050630Z AUTO 01004KT 9999 OVC040 06/02 Q1042 NOSIG

Heure: 07:50 (06:50 UTC)

Prévision

Le bulletin a été fait il y a 1 heure et 50 minutes, à 05:00 UTC
Prévision valable du 05 à 06 UTC au 06 à 06 UTC
Vent 6 kt de nord/nord-est
Visibilité 10 km ou plus
Ciel couvert à une hauteur de 4000 ft
Probabilité 30% :
Temporairement
du 05 à 12 UTC au 05 à 15 UTC
Nuages fragmentés à une hauteur de 1400 ft
Temporairement
du 06 à 03 UTC au 06 à 06 UTC
Nuages fragmentés à une hauteur de 300 ft

TAF: LFRI 050500Z 0506/0606 03006KT 9999 OVC040 PROB30 TEMPO 0512/0515 BKN014 TEMPO 0603/0606 BKN003

Observations et prévisions météorologiques de plus de 4000 aéroports (messages METAR et TAF).

Les stations disponibles sont représentées par des disques jaunes et rouges sur la carte.

Passer la souris dessus pour voir le nom de la station.

Cliquer dessus pour voir les observations et prévisions météorologiques.

Pour changer de carte: cliquez sur les boutons verts avec une croix noire pour zoomer, sur le bouton vert avec un tiret pour effectuer un zoom arrière, ou sur les flèches vertes pour les cartes adjacentes.


METAR-TAF: